Hovedside
METAR-TAF:

METAR-TAF

Lufthavner :

Norrköping, Sverige

breddegrad: 58-35N, lengdegrad: 016-09E, høyde over havet: 34 m

Gjeldene værobservasjon

Denne rapporten ble laget for 24 minutter siden, klokken 05:50 UTC
Vind 2 kt fra Vest
Temperatur -3°C
Luftfuktighet 80%
Trykk 1026 hPa
Sikt 10 km eller mer
ingen skyer under 1500 m og ingen bygeskyer

METAR: ESSP 240550Z 27002KT CAVOK M03/M06 Q1026 R27/09//95

Tid: 07:14 (06:14 UTC)

Varsel

Denne rapporten ble laget for 44 minutter siden, klokken 05:30 UTC
Varsel gyldig fra 24. klokken 06 UTC til 24. klokken 15 UTC
Vind 2 kt fra skiftende retning
Sikt 10 km eller mer
ingen skyer under 1500 m og ingen bygeskyer
Blir
fra 24. klokken 13 UTC til 24. klokken 15 UTC
Vind 10 kt fra Vest

TAF: ESSP 240530Z 2406/2415 VRB02KT CAVOK BECMG 2413/2415 27010KT

Værobservasjoner og værvarsel for over 4000 flyplasser (METAR- og TAF-rapporter).

Tilgjengelige stasjoner er representert av de røde og gule prikkene på kartet.

Hold musepekeren over prikken for å se navnet på stasjonen.

Klikk så for å se værobservasjoner og -varsler.

For å forandre kartet kan du klikke på den grønne knappen med svart kryss for å zoome inn, på den grønne knappen med strek for å zoome ut, eller på de grønne pilene for å se tilstøtende kart.


METAR-TAF: